sensor_id;sensor_type;location;lat;lon;timestamp;pressure;altitude;pressure_sealevel;temperature;humidity
11345;BME280;5727;42.600;23.028;2023-06-14T00:00:41;93391.31;;;17.65;100.00
11345;BME280;5727;42.600;23.028;2023-06-14T00:03:08;93393.59;;;17.63;100.00
11345;BME280;5727;42.600;23.028;2023-06-14T00:05:37;93387.91;;;17.61;100.00
11345;BME280;5727;42.600;23.028;2023-06-14T00:08:08;93390.56;;;17.61;100.00
11345;BME280;5727;42.600;23.028;2023-06-14T00:10:36;93395.06;;;17.50;100.00
11345;BME280;5727;42.600;23.028;2023-06-14T00:13:05;93394.31;;;17.57;100.00
11345;BME280;5727;42.600;23.028;2023-06-14T00:15:32;93393.19;;;17.58;100.00
11345;BME280;5727;42.600;23.028;2023-06-14T00:17:59;93388.63;;;17.58;100.00
11345;BME280;5727;42.600;23.028;2023-06-14T00:20:26;93389.41;;;17.59;100.00
11345;BME280;5727;42.600;23.028;2023-06-14T00:22:53;93392.44;;;17.61;100.00
11345;BME280;5727;42.600;23.028;2023-06-14T00:25:20;93386.00;;;17.62;100.00
11345;BME280;5727;42.600;23.028;2023-06-14T00:27:47;93378.03;;;17.62;100.00
11345;BME280;5727;42.600;23.028;2023-06-14T00:30:15;93381.06;;;17.60;100.00
11345;BME280;5727;42.600;23.028;2023-06-14T00:32:42;93371.63;;;17.59;100.00
11345;BME280;5727;42.600;23.028;2023-06-14T00:35:09;93368.59;;;17.57;100.00
11345;BME280;5727;42.600;23.028;2023-06-14T00:37:36;93375.78;;;17.57;100.00
11345;BME280;5727;42.600;23.028;2023-06-14T00:40:04;93368.22;;;17.59;100.00
11345;BME280;5727;42.600;23.028;2023-06-14T00:42:31;93368.59;;;17.61;100.00
11345;BME280;5727;42.600;23.028;2023-06-14T00:44:58;93369.38;;;17.61;100.00
11345;BME280;5727;42.600;23.028;2023-06-14T00:47:26;93365.94;;;17.64;100.00
11345;BME280;5727;42.600;23.028;2023-06-14T00:49:53;93365.56;;;17.62;100.00
11345;BME280;5727;42.600;23.028;2023-06-14T00:52:22;93364.78;;;17.62;100.00
11345;BME280;5727;42.600;23.028;2023-06-14T00:54:49;93369.38;;;17.61;100.00
11345;BME280;5727;42.600;23.028;2023-06-14T00:57:16;93366.72;;;17.61;100.00
11345;BME280;5727;42.600;23.028;2023-06-14T00:59:44;93354.97;;;17.62;100.00
11345;BME280;5727;42.600;23.028;2023-06-14T01:02:11;93359.50;;;17.58;100.00
11345;BME280;5727;42.600;23.028;2023-06-14T01:04:44;93356.84;;;17.58;100.00
11345;BME280;5727;42.600;23.028;2023-06-14T01:07:23;93359.13;;;17.53;100.00
11345;BME280;5727;42.600;23.028;2023-06-14T01:10:02;93348.88;;;17.48;100.00
11345;BME280;5727;42.600;23.028;2023-06-14T01:12:37;93354.53;;;17.42;100.00
11345;BME280;5727;42.600;23.028;2023-06-14T01:15:07;93352.63;;;17.36;100.00
11345;BME280;5727;42.600;23.028;2023-06-14T01:17:35;93355.66;;;17.34;100.00
11345;BME280;5727;42.600;23.028;2023-06-14T01:20:11;93351.88;;;17.39;100.00
11345;BME280;5727;42.600;23.028;2023-06-14T01:22:50;93355.28;;;17.36;100.00
11345;BME280;5727;42.600;23.028;2023-06-14T01:25:16;93353.03;;;17.34;100.00
11345;BME280;5727;42.600;23.028;2023-06-14T01:27:47;93356.78;;;17.37;100.00
11345;BME280;5727;42.600;23.028;2023-06-14T01:30:15;93358.31;;;17.38;100.00
11345;BME280;5727;42.600;23.028;2023-06-14T01:32:43;93357.94;;;17.36;100.00
11345;BME280;5727;42.600;23.028;2023-06-14T01:35:10;93359.44;;;17.30;100.00
11345;BME280;5727;42.600;23.028;2023-06-14T01:37:37;93361.31;;;17.26;100.00
11345;BME280;5727;42.600;23.028;2023-06-14T01:40:09;93356.41;;;17.28;100.00
11345;BME280;5727;42.600;23.028;2023-06-14T01:42:38;93353.75;;;17.28;100.00
11345;BME280;5727;42.600;23.028;2023-06-14T01:45:06;93353.75;;;17.24;100.00
11345;BME280;5727;42.600;23.028;2023-06-14T01:47:33;93359.03;;;17.24;100.00
11345;BME280;5727;42.600;23.028;2023-06-14T01:50:01;93363.97;;;17.26;100.00
11345;BME280;5727;42.600;23.028;2023-06-14T01:52:29;93360.94;;;17.24;100.00
11345;BME280;5727;42.600;23.028;2023-06-14T01:54:56;93367.38;;;17.26;100.00
11345;BME280;5727;42.600;23.028;2023-06-14T01:57:25;93370.41;;;17.25;100.00
11345;BME280;5727;42.600;23.028;2023-06-14T01:59:52;93375.31;;;17.23;100.00
11345;BME280;5727;42.600;23.028;2023-06-14T02:02:19;93384.38;;;17.22;100.00
11345;BME280;5727;42.600;23.028;2023-06-14T02:04:46;93380.97;;;17.21;100.00
11345;BME280;5727;42.600;23.028;2023-06-14T02:07:14;93382.06;;;17.10;100.00
11345;BME280;5727;42.600;23.028;2023-06-14T02:09:41;93379.78;;;17.12;100.00
11345;BME280;5727;42.600;23.028;2023-06-14T02:12:08;93382.09;;;17.13;100.00
11345;BME280;5727;42.600;23.028;2023-06-14T02:14:37;93389.25;;;17.13;100.00
11345;BME280;5727;42.600;23.028;2023-06-14T02:17:04;93384.31;;;17.04;100.00
11345;BME280;5727;42.600;23.028;2023-06-14T02:19:31;93393.78;;;17.09;100.00
11345;BME280;5727;42.600;23.028;2023-06-14T02:21:58;93383.59;;;17.11;100.00
11345;BME280;5727;42.600;23.028;2023-06-14T02:24:25;93389.25;;;17.13;100.00
11345;BME280;5727;42.600;23.028;2023-06-14T02:26:52;93390.78;;;17.14;100.00
11345;BME280;5727;42.600;23.028;2023-06-14T02:29:19;93391.91;;;17.16;100.00
11345;BME280;5727;42.600;23.028;2023-06-14T02:31:47;93392.69;;;17.20;100.00
11345;BME280;5727;42.600;23.028;2023-06-14T02:34:15;93390.81;;;17.21;100.00
11345;BME280;5727;42.600;23.028;2023-06-14T02:36:43;93393.81;;;17.19;100.00
11345;BME280;5727;42.600;23.028;2023-06-14T02:39:10;93396.06;;;17.14;100.00
11345;BME280;5727;42.600;23.028;2023-06-14T02:41:37;93397.19;;;17.09;100.00
11345;BME280;5727;42.600;23.028;2023-06-14T02:44:04;93397.91;;;17.03;100.00
11345;BME280;5727;42.600;23.028;2023-06-14T02:46:31;93390.75;;;17.00;100.00
11345;BME280;5727;42.600;23.028;2023-06-14T02:48:59;93388.06;;;16.96;100.00
11345;BME280;5727;42.600;23.028;2023-06-14T02:51:26;93394.50;;;16.99;100.00
11345;BME280;5727;42.600;23.028;2023-06-14T02:53:52;93390.34;;;16.98;100.00
11345;BME280;5727;42.600;23.028;2023-06-14T02:56:19;93380.53;;;17.02;100.00
11345;BME280;5727;42.600;23.028;2023-06-14T02:58:47;93377.53;;;17.07;100.00
11345;BME280;5727;42.600;23.028;2023-06-14T03:01:14;93374.88;;;17.10;100.00
11345;BME280;5727;42.600;23.028;2023-06-14T03:03:41;93385.13;;;17.15;100.00
11345;BME280;5727;42.600;23.028;2023-06-14T03:06:09;93380.56;;;17.09;100.00
11345;BME280;5727;42.600;23.028;2023-06-14T03:08:39;93391.13;;;17.09;100.00
11345;BME280;5727;42.600;23.028;2023-06-14T03:11:07;93388.88;;;17.07;100.00
11345;BME280;5727;42.600;23.028;2023-06-14T03:13:34;93390.38;;;17.08;100.00
11345;BME280;5727;42.600;23.028;2023-06-14T03:16:00;93403.59;;;17.08;100.00
11345;BME280;5727;42.600;23.028;2023-06-14T03:18:28;93411.94;;;17.14;100.00
11345;BME280;5727;42.600;23.028;2023-06-14T03:20:55;93409.66;;;17.09;100.00
11345;BME280;5727;42.600;23.028;2023-06-14T03:23:25;93403.66;;;17.15;100.00
11345;BME280;5727;42.600;23.028;2023-06-14T03:25:52;93406.69;;;17.21;100.00
11345;BME280;5727;42.600;23.028;2023-06-14T03:28:19;93412.38;;;17.26;100.00
11345;BME280;5727;42.600;23.028;2023-06-14T03:30:46;93407.09;;;17.30;100.00
11345;BME280;5727;42.600;23.028;2023-06-14T03:33:12;93410.13;;;17.25;100.00
11345;BME280;5727;42.600;23.028;2023-06-14T03:35:40;93415.41;;;17.25;100.00
11345;BME280;5727;42.600;23.028;2023-06-14T03:38:07;93422.53;;;17.10;100.00
11345;BME280;5727;42.600;23.028;2023-06-14T03:40:36;93413.88;;;17.17;100.00
11345;BME280;5727;42.600;23.028;2023-06-14T03:43:02;93427.50;;;17.26;100.00
11345;BME280;5727;42.600;23.028;2023-06-14T03:45:29;93418.38;;;17.16;100.00
11345;BME280;5727;42.600;23.028;2023-06-14T03:47:56;93433.19;;;17.28;100.00
11345;BME280;5727;42.600;23.028;2023-06-14T03:50:23;93425.63;;;17.30;100.00
11345;BME280;5727;42.600;23.028;2023-06-14T03:52:50;93426.78;;;17.36;100.00
11345;BME280;5727;42.600;23.028;2023-06-14T03:55:17;93429.44;;;17.43;100.00
11345;BME280;5727;42.600;23.028;2023-06-14T03:57:45;93431.41;;;17.50;100.00
11345;BME280;5727;42.600;23.028;2023-06-14T04:00:13;93435.19;;;17.56;100.00
11345;BME280;5727;42.600;23.028;2023-06-14T04:02:40;93426.06;;;17.46;100.00
11345;BME280;5727;42.600;23.028;2023-06-14T04:05:07;93419.97;;;17.35;100.00
11345;BME280;5727;42.600;23.028;2023-06-14T04:07:34;93427.88;;;17.21;100.00
11345;BME280;5727;42.600;23.028;2023-06-14T04:10:06;93430.09;;;17.12;100.00
11345;BME280;5727;42.600;23.028;2023-06-14T04:12:33;93426.66;;;17.08;100.00
11345;BME280;5727;42.600;23.028;2023-06-14T04:15:01;93422.13;;;17.01;100.00
11345;BME280;5727;42.600;23.028;2023-06-14T04:17:31;93418.00;;;17.18;100.00
11345;BME280;5727;42.600;23.028;2023-06-14T04:19:58;93418.06;;;17.32;100.00
11345;BME280;5727;42.600;23.028;2023-06-14T04:22:25;93418.47;;;17.41;100.00
11345;BME280;5727;42.600;23.028;2023-06-14T04:24:53;93413.94;;;17.45;100.00
11345;BME280;5727;42.600;23.028;2023-06-14T04:27:21;93414.34;;;17.54;100.00
11345;BME280;5727;42.600;23.028;2023-06-14T04:29:50;93413.25;;;17.55;100.00
11345;BME280;5727;42.600;23.028;2023-06-14T04:32:23;93410.22;;;17.60;100.00
11345;BME280;5727;42.600;23.028;2023-06-14T04:34:52;93421.59;;;17.64;100.00
11345;BME280;5727;42.600;23.028;2023-06-14T04:37:20;93417.03;;;17.68;100.00
11345;BME280;5727;42.600;23.028;2023-06-14T04:39:47;93421.59;;;17.68;100.00
11345;BME280;5727;42.600;23.028;2023-06-14T04:42:14;93418.56;;;17.73;100.00
11345;BME280;5727;42.600;23.028;2023-06-14T04:44:41;93420.84;;;17.67;100.00
11345;BME280;5727;42.600;23.028;2023-06-14T04:47:09;93429.16;;;17.66;100.00
11345;BME280;5727;42.600;23.028;2023-06-14T04:49:38;93441.28;;;17.70;100.00
11345;BME280;5727;42.600;23.028;2023-06-14T04:52:06;93444.31;;;17.76;100.00
11345;BME280;5727;42.600;23.028;2023-06-14T04:54:35;93442.81;;;17.75;100.00
11345;BME280;5727;42.600;23.028;2023-06-14T04:57:03;93443.88;;;17.60;100.00
11345;BME280;5727;42.600;23.028;2023-06-14T04:59:31;93446.22;;;17.79;100.00
11345;BME280;5727;42.600;23.028;2023-06-14T05:02:00;93454.19;;;17.89;100.00
11345;BME280;5727;42.600;23.028;2023-06-14T05:04:27;93453.44;;;18.10;100.00
11345;BME280;5727;42.600;23.028;2023-06-14T05:06:55;93461.78;;;18.29;100.00
11345;BME280;5727;42.600;23.028;2023-06-14T05:09:22;93465.59;;;18.46;100.00
11345;BME280;5727;42.600;23.028;2023-06-14T05:11:49;93469.75;;;18.58;100.00
11345;BME280;5727;42.600;23.028;2023-06-14T05:14:16;93464.44;;;18.54;100.00
11345;BME280;5727;42.600;23.028;2023-06-14T05:16:43;93464.84;;;18.67;100.00
11345;BME280;5727;42.600;23.028;2023-06-14T05:19:10;93468.19;;;18.85;100.00
11345;BME280;5727;42.600;23.028;2023-06-14T05:21:37;93472.34;;;18.96;100.00
11345;BME280;5727;42.600;23.028;2023-06-14T05:24:06;93470.03;;;19.12;100.00
11345;BME280;5727;42.600;23.028;2023-06-14T05:26:34;93480.25;;;19.25;100.00
11345;BME280;5727;42.600;23.028;2023-06-14T05:29:01;93484.41;;;19.33;100.00
11345;BME280;5727;42.600;23.028;2023-06-14T05:31:28;93486.66;;;19.41;100.00
11345;BME280;5727;42.600;23.028;2023-06-14T05:33:54;93484.38;;;19.43;100.00
11345;BME280;5727;42.600;23.028;2023-06-14T05:36:21;93488.56;;;19.41;100.00
11345;BME280;5727;42.600;23.028;2023-06-14T05:38:48;93488.19;;;19.35;100.00
11345;BME280;5727;42.600;23.028;2023-06-14T05:41:17;93491.25;;;19.27;100.00
11345;BME280;5727;42.600;23.028;2023-06-14T05:43:46;93490.53;;;19.19;100.00
11345;BME280;5727;42.600;23.028;2023-06-14T05:46:12;93491.66;;;19.04;100.00
11345;BME280;5727;42.600;23.028;2023-06-14T05:48:40;93490.91;;;19.00;100.00
11345;BME280;5727;42.600;23.028;2023-06-14T05:51:06;93494.72;;;19.02;100.00
11345;BME280;5727;42.600;23.028;2023-06-14T05:53:34;93496.59;;;19.09;100.00
11345;BME280;5727;42.600;23.028;2023-06-14T05:56:01;93489.03;;;19.11;100.00
11345;BME280;5727;42.600;23.028;2023-06-14T05:58:29;93493.97;;;18.91;100.00
11345;BME280;5727;42.600;23.028;2023-06-14T06:00:55;93493.22;;;18.94;100.00
11345;BME280;5727;42.600;23.028;2023-06-14T06:03:23;93492.03;;;19.06;100.00
11345;BME280;5727;42.600;23.028;2023-06-14T06:05:50;93501.88;;;19.23;100.00
11345;BME280;5727;42.600;23.028;2023-06-14T06:08:16;93495.78;;;19.30;100.00
11345;BME280;5727;42.600;23.028;2023-06-14T06:10:44;93496.16;;;19.39;100.00
11345;BME280;5727;42.600;23.028;2023-06-14T06:13:10;93495.00;;;19.47;100.00
11345;BME280;5727;42.600;23.028;2023-06-14T06:15:38;93502.56;;;19.55;100.00
11345;BME280;5727;42.600;23.028;2023-06-14T06:18:05;93513.19;;;19.55;100.00
11345;BME280;5727;42.600;23.028;2023-06-14T06:20:32;93506.31;;;19.58;100.00
11345;BME280;5727;42.600;23.028;2023-06-14T06:22:59;93500.28;;;19.50;100.00
11345;BME280;5727;42.600;23.028;2023-06-14T06:25:26;93505.22;;;19.55;100.00
11345;BME280;5727;42.600;23.028;2023-06-14T06:27:53;93506.66;;;19.70;100.00
11345;BME280;5727;42.600;23.028;2023-06-14T06:30:21;93508.13;;;19.82;100.00
11345;BME280;5727;42.600;23.028;2023-06-14T06:32:50;93506.19;;;19.89;100.00
11345;BME280;5727;42.600;23.028;2023-06-14T06:35:17;93503.09;;;19.98;100.00
11345;BME280;5727;42.600;23.028;2023-06-14T06:37:44;93496.94;;;20.12;100.00
11345;BME280;5727;42.600;23.028;2023-06-14T06:40:11;93501.81;;;20.27;100.00
11345;BME280;5727;42.600;23.028;2023-06-14T06:42:38;93502.38;;;20.52;100.00
11345;BME280;5727;42.600;23.028;2023-06-14T06:45:05;93503.41;;;20.69;100.00
11345;BME280;5727;42.600;23.028;2023-06-14T06:47:32;93506.34;;;20.81;100.00
11345;BME280;5727;42.600;23.028;2023-06-14T06:50:00;93510.09;;;20.87;100.00
11345;BME280;5727;42.600;23.028;2023-06-14T06:52:27;93505.16;;;20.86;100.00
11345;BME280;5727;42.600;23.028;2023-06-14T06:54:54;93511.91;;;20.94;100.00
11345;BME280;5727;42.600;23.028;2023-06-14T06:57:21;93511.44;;;21.06;100.00
11345;BME280;5727;42.600;23.028;2023-06-14T06:59:48;93516.69;;;21.17;100.00
11345;BME280;5727;42.600;23.028;2023-06-14T07:02:16;93504.41;;;21.26;100.00
11345;BME280;5727;42.600;23.028;2023-06-14T07:04:42;93513.25;;;21.53;100.00
11345;BME280;5727;42.600;23.028;2023-06-14T07:07:10;93508.50;;;21.68;100.00
11345;BME280;5727;42.600;23.028;2023-06-14T07:09:37;93506.06;;;21.80;100.00
11345;BME280;5727;42.600;23.028;2023-06-14T07:12:04;93509.75;;;21.94;100.00
11345;BME280;5727;42.600;23.028;2023-06-14T07:14:32;93511.06;;;22.09;100.00
11345;BME280;5727;42.600;23.028;2023-06-14T07:16:58;93507.22;;;22.10;100.00
11345;BME280;5727;42.600;23.028;2023-06-14T07:19:25;93508.38;;;22.09;100.00
11345;BME280;5727;42.600;23.028;2023-06-14T07:21:52;93513.16;;;22.21;100.00
11345;BME280;5727;42.600;23.028;2023-06-14T07:24:20;93504.59;;;22.33;100.00
11345;BME280;5727;42.600;23.028;2023-06-14T07:26:47;93510.03;;;22.52;100.00
11345;BME280;5727;42.600;23.028;2023-06-14T07:29:14;93501.44;;;22.68;100.00
11345;BME280;5727;42.600;23.028;2023-06-14T07:31:41;93502.56;;;22.90;100.00
11345;BME280;5727;42.600;23.028;2023-06-14T07:34:08;93506.41;;;23.12;100.00
11345;BME280;5727;42.600;23.028;2023-06-14T07:36:35;93502.47;;;22.74;100.00
11345;BME280;5727;42.600;23.028;2023-06-14T07:39:03;93513.25;;;22.90;100.00
11345;BME280;5727;42.600;23.028;2023-06-14T07:41:33;93515.22;;;23.09;100.00
11345;BME280;5727;42.600;23.028;2023-06-14T07:43:59;93514.22;;;23.03;100.00
11345;BME280;5727;42.600;23.028;2023-06-14T07:46:26;93521.88;;;22.78;100.00
11345;BME280;5727;42.600;23.028;2023-06-14T07:48:53;93523.94;;;22.40;100.00
11345;BME280;5727;42.600;23.028;2023-06-14T07:51:20;93517.88;;;22.10;100.00
11345;BME280;5727;42.600;23.028;2023-06-14T07:53:47;93516.94;;;21.97;100.00
11345;BME280;5727;42.600;23.028;2023-06-14T07:56:14;93525.50;;;21.47;100.00
11345;BME280;5727;42.600;23.028;2023-06-14T07:58:42;93523.06;;;21.26;100.00
11345;BME280;5727;42.600;23.028;2023-06-14T08:01:09;93532.31;;;21.15;100.00
11345;BME280;5727;42.600;23.028;2023-06-14T08:03:36;93532.41;;;21.04;100.00
11345;BME280;5727;42.600;23.028;2023-06-14T08:06:03;93534.69;;;21.02;100.00
11345;BME280;5727;42.600;23.028;2023-06-14T08:08:31;93538.19;;;20.92;100.00
11345;BME280;5727;42.600;23.028;2023-06-14T08:10:58;93543.88;;;20.94;100.00
11345;BME280;5727;42.600;23.028;2023-06-14T08:13:24;93540.34;;;21.08;100.00
11345;BME280;5727;42.600;23.028;2023-06-14T08:15:53;93541.72;;;21.26;100.00
11345;BME280;5727;42.600;23.028;2023-06-14T08:18:20;93544.28;;;21.67;100.00
11345;BME280;5727;42.600;23.028;2023-06-14T08:20:47;93538.16;;;22.07;100.00
11345;BME280;5727;42.600;23.028;2023-06-14T08:23:14;93541.13;;;22.39;100.00
11345;BME280;5727;42.600;23.028;2023-06-14T08:25:41;93541.47;;;22.15;100.00
11345;BME280;5727;42.600;23.028;2023-06-14T08:28:08;93537.94;;;22.48;100.00
11345;BME280;5727;42.600;23.028;2023-06-14T08:30:34;93542.88;;;22.23;100.00
11345;BME280;5727;42.600;23.028;2023-06-14T08:33:02;93542.72;;;22.07;100.00
11345;BME280;5727;42.600;23.028;2023-06-14T08:35:29;93549.34;;;21.95;100.00
11345;BME280;5727;42.600;23.028;2023-06-14T08:37:56;93542.66;;;21.80;100.00
11345;BME280;5727;42.600;23.028;2023-06-14T08:40:23;93540.19;;;21.62;100.00
11345;BME280;5727;42.600;23.028;2023-06-14T08:42:51;93546.75;;;21.54;100.00
11345;BME280;5727;42.600;23.028;2023-06-14T08:45:19;93540.03;;;21.73;100.00
11345;BME280;5727;42.600;23.028;2023-06-14T08:47:46;93537.56;;;21.59;100.00
11345;BME280;5727;42.600;23.028;2023-06-14T08:50:20;93540.38;;;21.45;100.00
11345;BME280;5727;42.600;23.028;2023-06-14T08:52:48;93538.44;;;21.49;100.00
11345;BME280;5727;42.600;23.028;2023-06-14T08:55:18;93538.50;;;21.42;100.00
11345;BME280;5727;42.600;23.028;2023-06-14T08:57:46;93529.66;;;21.48;100.00
11345;BME280;5727;42.600;23.028;2023-06-14T09:00:15;93522.97;;;21.67;100.00
11345;BME280;5727;42.600;23.028;2023-06-14T09:02:42;93521.91;;;21.61;100.00
11345;BME280;5727;42.600;23.028;2023-06-14T09:05:09;93521.78;;;21.71;100.00
11345;BME280;5727;42.600;23.028;2023-06-14T09:07:40;93519.75;;;21.82;100.00
11345;BME280;5727;42.600;23.028;2023-06-14T09:10:12;93520.41;;;21.94;100.00
11345;BME280;5727;42.600;23.028;2023-06-14T09:12:39;93517.19;;;22.06;100.00
11345;BME280;5727;42.600;23.028;2023-06-14T09:15:07;93510.25;;;22.12;100.00
11345;BME280;5727;42.600;23.028;2023-06-14T09:17:34;93519.13;;;22.32;100.00
11345;BME280;5727;42.600;23.028;2023-06-14T09:20:02;93514.94;;;22.57;100.00
11345;BME280;5727;42.600;23.028;2023-06-14T09:22:32;93516.19;;;22.76;100.00
11345;BME280;5727;42.600;23.028;2023-06-14T09:25:00;93507.00;;;22.77;100.00
11345;BME280;5727;42.600;23.028;2023-06-14T09:27:28;93496.22;;;22.84;100.00
11345;BME280;5727;42.600;23.028;2023-06-14T09:29:55;93500.59;;;22.94;100.00
11345;BME280;5727;42.600;23.028;2023-06-14T09:32:22;93505.00;;;23.04;100.00
11345;BME280;5727;42.600;23.028;2023-06-14T09:34:49;93498.56;;;23.02;100.00
11345;BME280;5727;42.600;23.028;2023-06-14T09:37:29;93499.16;;;22.90;100.00
11345;BME280;5727;42.600;23.028;2023-06-14T09:39:57;93499.09;;;22.93;100.00
11345;BME280;5727;42.600;23.028;2023-06-14T09:42:25;93504.44;;;22.93;100.00
11345;BME280;5727;42.600;23.028;2023-06-14T09:44:54;93503.69;;;22.93;100.00
11345;BME280;5727;42.600;23.028;2023-06-14T09:47:22;93500.00;;;23.06;100.00
11345;BME280;5727;42.600;23.028;2023-06-14T09:49:49;93496.66;;;23.02;100.00
11345;BME280;5727;42.600;23.028;2023-06-14T09:52:16;93497.22;;;23.13;100.00
11345;BME280;5727;42.600;23.028;2023-06-14T09:54:44;93490.00;;;23.33;100.00
11345;BME280;5727;42.600;23.028;2023-06-14T09:57:14;93492.75;;;23.49;100.00
11345;BME280;5727;42.600;23.028;2023-06-14T09:59:43;93488.91;;;23.70;100.00
11345;BME280;5727;42.600;23.028;2023-06-14T10:02:17;93477.50;;;23.86;100.00
11345;BME280;5727;42.600;23.028;2023-06-14T10:04:47;93471.56;;;23.78;100.00
11345;BME280;5727;42.600;23.028;2023-06-14T10:07:19;93467.53;;;23.86;100.00
11345;BME280;5727;42.600;23.028;2023-06-14T10:09:47;93472.50;;;23.88;100.00
11345;BME280;5727;42.600;23.028;2023-06-14T10:12:16;93467.84;;;23.92;100.00
11345;BME280;5727;42.600;23.028;2023-06-14T10:14:49;93462.94;;;24.06;100.00
11345;BME280;5727;42.600;23.028;2023-06-14T10:17:22;93467.47;;;24.09;100.00
11345;BME280;5727;42.600;23.028;2023-06-14T10:19:55;93457.50;;;24.10;99.30
11345;BME280;5727;42.600;23.028;2023-06-14T10:22:28;93462.06;;;24.13;100.00
11345;BME280;5727;42.600;23.028;2023-06-14T10:24:56;93457.94;;;24.08;100.00
11345;BME280;5727;42.600;23.028;2023-06-14T10:27:22;93454.34;;;24.31;97.16
11345;BME280;5727;42.600;23.028;2023-06-14T10:30:06;93450.19;;;24.62;94.35
11345;BME280;5727;42.600;23.028;2023-06-14T10:32:33;93438.84;;;25.03;94.83
11345;BME280;5727;42.600;23.028;2023-06-14T10:35:01;93443.22;;;24.97;91.87
11345;BME280;5727;42.600;23.028;2023-06-14T10:37:31;93439.28;;;24.85;91.12
11345;BME280;5727;42.600;23.028;2023-06-14T10:39:58;93443.31;;;24.61;92.10
11345;BME280;5727;42.600;23.028;2023-06-14T10:42:28;93431.44;;;24.30;92.23
11345;BME280;5727;42.600;23.028;2023-06-14T10:44:58;93427.59;;;24.47;96.02
11345;BME280;5727;42.600;23.028;2023-06-14T10:47:30;93435.09;;;24.68;97.44
11345;BME280;5727;42.600;23.028;2023-06-14T10:50:03;93421.38;;;24.82;95.59
11345;BME280;5727;42.600;23.028;2023-06-14T10:52:33;93420.97;;;24.84;94.12
11345;BME280;5727;42.600;23.028;2023-06-14T10:55:09;93425.84;;;25.01;92.48
11345;BME280;5727;42.600;23.028;2023-06-14T10:57:37;93410.59;;;25.27;93.84
11345;BME280;5727;42.600;23.028;2023-06-14T11:00:06;93415.31;;;25.23;88.88
11345;BME280;5727;42.600;23.028;2023-06-14T11:05:51;93408.06;;;25.07;89.42
11345;BME280;5727;42.600;23.028;2023-06-14T11:08:34;93404.03;;;25.15;91.80
11345;BME280;5727;42.600;23.028;2023-06-14T11:11:06;93394.84;;;25.16;91.32
11345;BME280;5727;42.600;23.028;2023-06-14T11:13:33;93399.56;;;25.25;87.61
11345;BME280;5727;42.600;23.028;2023-06-14T11:16:00;93394.41;;;25.30;89.64
11345;BME280;5727;42.600;23.028;2023-06-14T11:18:28;93386.78;;;25.58;88.48
11345;BME280;5727;42.600;23.028;2023-06-14T11:20:56;93391.88;;;26.06;92.30
11345;BME280;5727;42.600;23.028;2023-06-14T11:23:23;93390.47;;;26.39;89.17
11345;BME280;5727;42.600;23.028;2023-06-14T11:25:50;93396.59;;;26.86;87.89
11345;BME280;5727;42.600;23.028;2023-06-14T11:28:17;93397.03;;;27.41;86.07
11345;BME280;5727;42.600;23.028;2023-06-14T11:30:45;93388.34;;;28.38;79.41
11345;BME280;5727;42.600;23.028;2023-06-14T11:33:16;93381.63;;;28.42;71.07
11345;BME280;5727;42.600;23.028;2023-06-14T11:35:43;93387.84;;;28.21;72.16
11345;BME280;5727;42.600;23.028;2023-06-14T11:38:12;93377.22;;;28.18;71.47
11345;BME280;5727;42.600;23.028;2023-06-14T11:40:41;93373.34;;;27.88;67.60
11345;BME280;5727;42.600;23.028;2023-06-14T11:43:07;93379.78;;;28.30;66.25
11345;BME280;5727;42.600;23.028;2023-06-14T11:45:34;93369.94;;;28.36;65.55
11345;BME280;5727;42.600;23.028;2023-06-14T11:48:01;93371.53;;;28.82;69.18
11345;BME280;5727;42.600;23.028;2023-06-14T11:50:28;93366.44;;;30.79;59.21
11345;BME280;5727;42.600;23.028;2023-06-14T11:52:55;93363.75;;;33.54;49.91
11345;BME280;5727;42.600;23.028;2023-06-14T11:55:24;93346.63;;;34.42;42.67
11345;BME280;5727;42.600;23.028;2023-06-14T11:57:52;93341.94;;;35.99;39.48
11345;BME280;5727;42.600;23.028;2023-06-14T12:00:24;93345.94;;;35.92;39.06
11345;BME280;5727;42.600;23.028;2023-06-14T12:02:54;93337.78;;;34.47;42.63
11345;BME280;5727;42.600;23.028;2023-06-14T12:05:21;93345.81;;;33.16;47.02
11345;BME280;5727;42.600;23.028;2023-06-14T12:07:48;93334.03;;;32.24;50.13
11345;BME280;5727;42.600;23.028;2023-06-14T12:10:16;93339.47;;;30.93;54.41
11345;BME280;5727;42.600;23.028;2023-06-14T12:12:44;93332.50;;;29.98;56.72
11345;BME280;5727;42.600;23.028;2023-06-14T12:15:11;93345.44;;;29.34;60.95
11345;BME280;5727;42.600;23.028;2023-06-14T12:17:38;93343.50;;;28.71;62.95
11345;BME280;5727;42.600;23.028;2023-06-14T12:20:08;93349.59;;;28.35;67.22
11345;BME280;5727;42.600;23.028;2023-06-14T12:22:39;93340.22;;;28.00;68.37
11345;BME280;5727;42.600;23.028;2023-06-14T12:25:06;93342.22;;;27.78;68.68
11345;BME280;5727;42.600;23.028;2023-06-14T12:27:35;93336.38;;;27.05;69.92
11345;BME280;5727;42.600;23.028;2023-06-14T12:30:04;93337.75;;;26.54;70.03
11345;BME280;5727;42.600;23.028;2023-06-14T12:32:33;93334.75;;;26.05;74.97
11345;BME280;5727;42.600;23.028;2023-06-14T12:34:59;93330.13;;;25.56;85.10
11345;BME280;5727;42.600;23.028;2023-06-14T12:37:26;93331.91;;;25.33;87.70
11345;BME280;5727;42.600;23.028;2023-06-14T12:39:53;93331.13;;;25.20;90.67
11345;BME280;5727;42.600;23.028;2023-06-14T12:42:19;93329.22;;;25.33;91.97
11345;BME280;5727;42.600;23.028;2023-06-14T12:44:46;93332.41;;;25.28;96.14
11345;BME280;5727;42.600;23.028;2023-06-14T12:47:14;93326.88;;;24.94;99.37
11345;BME280;5727;42.600;23.028;2023-06-14T12:49:41;93332.81;;;24.73;100.00
11345;BME280;5727;42.600;23.028;2023-06-14T12:52:08;93336.47;;;24.34;100.00
11345;BME280;5727;42.600;23.028;2023-06-14T12:54:35;93336.50;;;24.63;99.64
11345;BME280;5727;42.600;23.028;2023-06-14T12:57:02;93338.97;;;24.41;96.82
11345;BME280;5727;42.600;23.028;2023-06-14T12:59:29;93337.88;;;24.55;94.89